createdAt,value
2023-03-28T00:01:04.606Z,11.37
2023-03-28T00:03:35.915Z,11.17
2023-03-28T00:06:05.979Z,10.80
2023-03-28T00:08:33.837Z,10.37
2023-03-28T00:11:19.036Z,11.87
2023-03-28T00:13:49.845Z,11.07
2023-03-28T00:16:17.679Z,9.80
2023-03-28T00:18:45.530Z,10.90
2023-03-28T00:21:24.174Z,10.07
2023-03-28T00:23:54.273Z,10.30
2023-03-28T00:26:24.990Z,9.03
2023-03-28T00:28:53.392Z,11.20
2023-03-28T00:31:22.266Z,9.10
2023-03-28T00:33:50.229Z,10.87
2023-03-28T00:36:23.012Z,9.97
2023-03-28T00:38:52.441Z,10.67
2023-03-28T00:41:24.318Z,9.13
2023-03-28T00:43:56.773Z,8.87
2023-03-28T00:46:42.187Z,10.00
2023-03-28T00:49:17.470Z,9.33
2023-03-28T00:51:50.545Z,8.83
2023-03-28T00:54:20.198Z,8.90
2023-03-28T00:56:52.205Z,10.43
2023-03-28T00:59:23.671Z,8.60
2023-03-28T01:01:51.730Z,9.37
2023-03-28T01:04:22.424Z,8.83
2023-03-28T01:06:56.877Z,10.17
2023-03-28T01:09:24.642Z,9.70
2023-03-28T01:11:56.323Z,9.03
2023-03-28T01:14:27.384Z,9.57
2023-03-28T01:16:59.153Z,9.70
2023-03-28T01:19:58.834Z,9.40
2023-03-28T01:22:56.735Z,9.27
2023-03-28T01:25:43.507Z,8.60
2023-03-28T01:28:32.754Z,9.07
2023-03-28T01:31:47.110Z,8.60
2023-03-28T01:34:39.478Z,8.47
2023-03-28T01:37:26.091Z,9.37
2023-03-28T01:40:18.284Z,9.20
2023-03-28T01:43:21.444Z,8.53
2023-03-28T01:46:29.827Z,7.50
2023-03-28T01:49:20.328Z,7.57
2023-03-28T01:52:05.368Z,8.20
2023-03-28T01:54:52.443Z,8.17
2023-03-28T01:57:55.488Z,7.73
2023-03-28T02:00:34.659Z,8.00
2023-03-28T02:03:13.197Z,8.23
2023-03-28T02:05:54.680Z,7.67
2023-03-28T02:08:28.539Z,7.67
2023-03-28T02:11:26.604Z,6.83
2023-03-28T02:14:06.490Z,5.80
2023-03-28T02:16:54.828Z,6.00
2023-03-28T02:19:55.373Z,4.90
2023-03-28T02:22:35.315Z,5.23
2023-03-28T02:25:19.115Z,5.73
2023-03-28T02:28:02.867Z,4.00
2023-03-28T02:30:54.165Z,4.30
2023-03-28T02:33:38.065Z,3.97
2023-03-28T02:36:34.510Z,3.73
2023-03-28T02:39:21.571Z,4.20
2023-03-28T02:41:49.335Z,3.60
2023-03-28T02:44:20.827Z,3.77
2023-03-28T02:47:05.416Z,3.60
2023-03-28T02:49:50.495Z,3.77
2023-03-28T02:52:20.274Z,3.33
2023-03-28T02:54:58.714Z,2.97
2023-03-28T02:57:44.660Z,2.83
2023-03-28T03:00:19.996Z,2.77
2023-03-28T03:02:51.703Z,2.90
2023-03-28T03:05:21.173Z,2.80
2023-03-28T03:07:51.142Z,3.60
2023-03-28T03:10:20.586Z,3.20
2023-03-28T03:12:48.973Z,2.83
2023-03-28T03:15:17.701Z,3.03
2023-03-28T03:17:59.653Z,2.70
2023-03-28T03:20:34.598Z,2.60
2023-03-28T03:23:05.111Z,2.40
2023-03-28T03:25:35.535Z,3.17
2023-03-28T03:28:14.423Z,2.80
2023-03-28T03:30:43.380Z,3.20
2023-03-28T03:33:34.782Z,3.10
2023-03-28T03:36:06.236Z,2.77
2023-03-28T03:38:35.251Z,2.80
2023-03-28T03:41:03.976Z,2.87
2023-03-28T03:43:34.958Z,3.23
2023-03-28T03:46:04.934Z,3.20
2023-03-28T03:48:33.829Z,3.53
2023-03-28T03:51:03.622Z,3.10
2023-03-28T03:53:35.021Z,3.40
2023-03-28T03:56:08.079Z,3.97
2023-03-28T03:58:58.989Z,3.40
2023-03-28T04:01:35.107Z,4.27
2023-03-28T04:04:17.775Z,4.10
2023-03-28T04:07:23.867Z,3.50
2023-03-28T04:09:54.722Z,3.93
2023-03-28T04:12:25.566Z,4.70
2023-03-28T04:14:56.377Z,6.70
2023-03-28T04:17:35.647Z,6.47
2023-03-28T04:20:13.296Z,8.40
2023-03-28T04:23:06.349Z,8.97
2023-03-28T04:25:36.256Z,10.27
2023-03-28T04:28:13.138Z,9.33
2023-03-28T04:31:00.126Z,9.57
2023-03-28T04:33:57.777Z,7.07
2023-03-28T04:36:26.107Z,7.50
2023-03-28T04:39:03.090Z,6.43
2023-03-28T04:42:02.250Z,5.70
2023-03-28T04:44:50.837Z,5.70
2023-03-28T04:47:19.199Z,5.33
2023-03-28T04:49:48.919Z,4.30
2023-03-28T04:52:17.180Z,4.70
2023-03-28T04:54:47.554Z,4.90
2023-03-28T04:57:17.556Z,5.20
2023-03-28T04:59:48.514Z,6.70
2023-03-28T05:02:31.215Z,7.43
2023-03-28T05:05:03.913Z,9.10
2023-03-28T05:07:32.226Z,6.40
2023-03-28T05:10:00.377Z,7.60
2023-03-28T05:12:35.047Z,7.40
2023-03-28T05:15:05.378Z,6.73
2023-03-28T05:17:38.575Z,6.97
2023-03-28T05:20:21.884Z,6.43
2023-03-28T05:22:54.721Z,8.10
2023-03-28T05:25:23.122Z,5.10
2023-03-28T05:27:51.615Z,5.37
2023-03-28T05:30:19.913Z,5.90
2023-03-28T05:32:52.956Z,5.80
2023-03-28T05:35:21.329Z,6.80
2023-03-28T05:37:51.628Z,7.53
2023-03-28T05:40:20.314Z,5.50
2023-03-28T05:42:48.210Z,6.27
2023-03-28T05:45:18.912Z,5.23
2023-03-28T05:47:54.609Z,5.30
2023-03-28T05:50:24.533Z,4.70
2023-03-28T05:52:57.315Z,5.87
2023-03-28T05:55:25.085Z,6.53
2023-03-28T05:57:52.988Z,6.10
2023-03-28T06:00:24.522Z,5.53
2023-03-28T06:02:55.007Z,4.77
2023-03-28T06:05:32.007Z,5.30
2023-03-28T06:08:00.131Z,5.63
2023-03-28T06:10:29.805Z,5.07
2023-03-28T06:13:17.874Z,3.80
2023-03-28T06:15:47.509Z,4.23
2023-03-28T06:18:16.359Z,4.30
2023-03-28T06:20:46.845Z,4.47
2023-03-28T06:23:15.072Z,4.57
2023-03-28T06:25:42.957Z,4.03
2023-03-28T06:28:10.882Z,6.80
2023-03-28T06:30:58.748Z,5.30
2023-03-28T06:33:26.611Z,3.50
2023-03-28T06:35:53.980Z,4.57
2023-03-28T06:38:21.699Z,4.50
2023-03-28T06:40:52.359Z,7.37
2023-03-28T06:43:19.991Z,12.27
2023-03-28T06:45:57.974Z,10.67
2023-03-28T06:48:33.585Z,6.00
2023-03-28T06:51:25.697Z,5.47
2023-03-28T06:53:53.724Z,9.20
2023-03-28T06:56:25.568Z,6.87
2023-03-28T06:58:53.069Z,5.07
2023-03-28T07:01:25.676Z,6.60
2023-03-28T07:04:25.598Z,7.53
2023-03-28T07:06:52.965Z,5.13
2023-03-28T07:09:20.901Z,5.00
2023-03-28T07:11:55.071Z,2.47
2023-03-28T07:14:23.597Z,4.33
2023-03-28T07:16:50.925Z,4.30
2023-03-28T07:19:18.513Z,5.03
2023-03-28T07:21:47.892Z,4.10
2023-03-28T07:24:15.688Z,6.73
2023-03-28T07:27:11.786Z,4.50
2023-03-28T07:29:43.054Z,5.50
2023-03-28T07:32:11.126Z,6.37
2023-03-28T07:34:38.727Z,5.97
2023-03-28T07:37:09.265Z,2.27
2023-03-28T07:39:48.104Z,2.63
2023-03-28T07:42:20.694Z,3.00
2023-03-28T07:44:48.239Z,3.17
2023-03-28T07:47:18.412Z,2.40
2023-03-28T07:49:47.491Z,2.73
2023-03-28T07:52:16.002Z,1.77
2023-03-28T07:54:43.944Z,2.53
2023-03-28T07:57:11.547Z,2.83
2023-03-28T07:59:54.243Z,2.45
2023-03-28T08:02:22.085Z,6.93
2023-03-28T08:04:50.171Z,3.40
2023-03-28T08:07:21.955Z,2.75
2023-03-28T08:09:52.408Z,3.20
2023-03-28T08:12:23.907Z,4.07
2023-03-28T08:14:51.925Z,2.93
2023-03-28T08:17:23.324Z,2.57
2023-03-28T08:19:53.237Z,4.90
2023-03-28T08:22:41.284Z,4.65
2023-03-28T08:25:29.295Z,3.83
2023-03-28T08:27:57.074Z,5.82
2023-03-28T08:30:24.722Z,5.20
2023-03-28T08:32:58.584Z,5.30
2023-03-28T08:35:27.239Z,6.37
2023-03-28T08:37:58.487Z,5.67
2023-03-28T08:40:29.011Z,4.10
2023-03-28T08:43:27.098Z,3.23
2023-03-28T08:46:00.108Z,4.37
2023-03-28T08:48:47.214Z,5.20
2023-03-28T08:51:35.773Z,3.70
2023-03-28T08:54:21.625Z,2.93
2023-03-28T08:56:56.500Z,2.00
2023-03-28T08:59:29.567Z,1.83
2023-03-28T09:01:57.859Z,15.90
2023-03-28T09:04:35.434Z,2.37
2023-03-28T09:07:42.334Z,2.43
2023-03-28T09:10:09.738Z,4.23
2023-03-28T09:12:55.334Z,4.73
2023-03-28T09:15:34.106Z,4.50
2023-03-28T09:18:04.725Z,6.20
2023-03-28T09:20:54.659Z,2.72
2023-03-28T09:23:58.027Z,3.80
2023-03-28T09:27:07.132Z,2.70
2023-03-28T09:29:42.728Z,1.87
2023-03-28T09:32:31.036Z,1.80
2023-03-28T09:34:59.479Z,2.53
2023-03-28T09:37:30.134Z,2.88
2023-03-28T09:40:06.364Z,2.38
2023-03-28T09:43:05.080Z,4.78
2023-03-28T09:46:00.462Z,2.85
2023-03-28T09:48:54.756Z,2.40
2023-03-28T09:51:26.212Z,4.85
2023-03-28T09:53:54.798Z,3.42
2023-03-28T09:56:35.295Z,3.17
2023-03-28T09:59:36.534Z,4.23
2023-03-28T10:02:34.065Z,1.67
2023-03-28T10:05:37.587Z,4.63
2023-03-28T10:08:35.649Z,2.55
2023-03-28T10:11:22.841Z,2.60
2023-03-28T10:13:53.408Z,2.95
2023-03-28T10:16:29.163Z,3.58
2023-03-28T10:19:14.333Z,8.35
2023-03-28T10:22:08.767Z,3.42
2023-03-28T10:24:40.179Z,3.40
2023-03-28T10:27:16.936Z,7.90
2023-03-28T10:29:46.569Z,9.97
2023-03-28T10:32:31.830Z,3.83
2023-03-28T10:35:28.183Z,2.67
2023-03-28T10:38:21.358Z,2.35
2023-03-28T10:41:23.909Z,2.38
2023-03-28T10:44:26.615Z,9.93
2023-03-28T10:47:05.446Z,1.90
2023-03-28T10:49:47.359Z,2.90
2023-03-28T10:52:35.932Z,1.98
2023-03-28T10:55:09.843Z,2.20
2023-03-28T10:58:22.084Z,2.58
2023-03-28T11:00:56.790Z,1.73
2023-03-28T11:03:34.740Z,3.77
2023-03-28T11:06:10.373Z,4.27
2023-03-28T11:08:57.965Z,6.43
2023-03-28T11:11:44.634Z,2.70
2023-03-28T11:14:17.999Z,7.57
2023-03-28T11:17:01.493Z,3.47
2023-03-28T11:19:47.028Z,8.60
2023-03-28T11:22:23.899Z,7.07
2023-03-28T11:25:08.725Z,6.13
2023-03-28T11:28:48.337Z,2.95
2023-03-28T11:31:29.118Z,3.13
2023-03-28T11:34:14.673Z,3.20
2023-03-28T11:37:01.055Z,2.47
2023-03-28T11:39:54.868Z,2.30
2023-03-28T11:42:41.987Z,2.70
2023-03-28T11:45:12.548Z,2.78
2023-03-28T11:47:45.783Z,4.10
2023-03-28T11:50:17.717Z,5.78
2023-03-28T11:53:15.977Z,4.60
2023-03-28T11:56:28.091Z,3.28
2023-03-28T11:59:25.808Z,2.42
2023-03-28T12:02:01.099Z,3.47
2023-03-28T12:04:37.814Z,3.13
2023-03-28T12:07:27.555Z,2.60
2023-03-28T12:10:22.843Z,1.75
2023-03-28T12:13:24.130Z,2.47
2023-03-28T12:16:12.117Z,4.18
2023-03-28T12:18:51.748Z,4.30
2023-03-28T12:21:47.976Z,3.28
2023-03-28T12:24:34.342Z,9.20
2023-03-28T12:27:43.047Z,3.90
2023-03-28T12:30:33.057Z,3.22
2023-03-28T12:33:04.055Z,3.53
2023-03-28T12:36:18.063Z,3.33
2023-03-28T12:39:01.274Z,5.47
2023-03-28T12:41:39.297Z,4.97
2023-03-28T12:44:17.256Z,4.50
2023-03-28T12:46:56.122Z,4.85
2023-03-28T12:49:39.540Z,4.47
2023-03-28T12:52:17.907Z,2.40
2023-03-28T12:54:58.339Z,3.95
2023-03-28T12:57:45.692Z,6.90
2023-03-28T13:00:41.592Z,4.97
2023-03-28T13:03:45.842Z,11.60
2023-03-28T13:07:05.480Z,4.82
2023-03-28T13:09:57.263Z,6.57
2023-03-28T13:12:37.833Z,6.95
2023-03-28T13:15:14.384Z,4.60
2023-03-28T13:18:22.039Z,4.10
2023-03-28T13:20:51.972Z,3.40
2023-03-28T13:23:30.776Z,49.90
2023-03-28T13:26:06.510Z,5.20
2023-03-28T13:28:44.319Z,3.70
2023-03-28T13:31:24.540Z,4.80
2023-03-28T13:34:02.636Z,8.47
2023-03-28T13:36:32.805Z,6.50
2023-03-28T13:39:19.422Z,6.73
2023-03-28T13:41:46.512Z,7.03
2023-03-28T13:44:27.635Z,6.80
2023-03-28T13:46:55.238Z,7.10
2023-03-28T13:49:28.599Z,4.47
2023-03-28T13:52:09.811Z,4.65
2023-03-28T13:54:37.283Z,4.07
2023-03-28T13:57:07.205Z,2.60
2023-03-28T13:59:38.474Z,2.50
2023-03-28T14:02:21.472Z,3.22
2023-03-28T14:04:55.240Z,3.40
2023-03-28T14:07:27.980Z,2.15
2023-03-28T14:09:57.533Z,4.97
2023-03-28T14:12:28.743Z,3.08
2023-03-28T14:15:01.571Z,3.80
2023-03-28T14:17:33.884Z,2.97
2023-03-28T14:20:07.645Z,3.58
2023-03-28T14:22:49.416Z,3.58
2023-03-28T14:25:27.695Z,5.53
2023-03-28T14:27:56.992Z,6.68
2023-03-28T14:30:30.683Z,5.43
2023-03-28T14:33:07.355Z,5.00
2023-03-28T14:35:36.815Z,3.30
2023-03-28T14:38:06.427Z,2.03
2023-03-28T14:40:38.936Z,1.83
2023-03-28T14:43:12.296Z,7.75
2023-03-28T14:45:50.660Z,4.10
2023-03-28T14:48:25.534Z,2.50
2023-03-28T14:50:55.052Z,2.90
2023-03-28T14:53:29.875Z,2.50
2023-03-28T14:56:12.883Z,1.97
2023-03-28T14:58:43.917Z,3.90
2023-03-28T15:01:24.114Z,5.53
2023-03-28T15:04:07.087Z,4.93
2023-03-28T15:06:36.652Z,5.97
2023-03-28T15:09:12.393Z,6.40
2023-03-28T15:11:44.476Z,7.17
2023-03-28T15:14:44.861Z,7.23
2023-03-28T15:17:24.638Z,6.70
2023-03-28T15:19:59.267Z,4.10
2023-03-28T15:22:30.489Z,6.17
2023-03-28T15:24:59.142Z,4.23
2023-03-28T15:27:35.961Z,5.07
2023-03-28T15:30:15.379Z,5.20
2023-03-28T15:32:45.145Z,8.00
2023-03-28T15:35:39.766Z,10.60
2023-03-28T15:38:19.657Z,16.07
2023-03-28T15:40:52.951Z,14.83
2023-03-28T15:43:27.554Z,10.13
2023-03-28T15:46:04.261Z,8.83
2023-03-28T15:48:37.379Z,6.00
2023-03-28T15:51:10.148Z,3.93
2023-03-28T15:53:42.229Z,5.73
2023-03-28T15:56:24.646Z,5.70
2023-03-28T15:58:53.752Z,8.23
2023-03-28T16:01:32.426Z,6.93
2023-03-28T16:04:16.250Z,6.13
2023-03-28T16:06:45.310Z,5.83
2023-03-28T16:09:20.664Z,6.10
2023-03-28T16:12:01.199Z,9.30
2023-03-28T16:14:53.242Z,7.03
2023-03-28T16:17:43.469Z,4.93
2023-03-28T16:20:37.250Z,4.93
2023-03-28T16:23:07.277Z,4.87
2023-03-28T16:25:35.644Z,5.00
2023-03-28T16:28:03.147Z,5.47
2023-03-28T16:30:41.270Z,5.53
2023-03-28T16:33:09.694Z,5.67
2023-03-28T16:35:38.240Z,6.70
2023-03-28T16:38:06.601Z,16.97
2023-03-28T16:40:34.572Z,15.67
2023-03-28T16:43:02.481Z,16.27
2023-03-28T16:45:31.264Z,20.53
2023-03-28T16:47:58.896Z,8.37
2023-03-28T16:50:27.396Z,10.87
2023-03-28T16:52:54.979Z,8.10
2023-03-28T16:55:24.008Z,10.80
2023-03-28T16:57:51.466Z,10.23
2023-03-28T17:00:24.585Z,7.60
2023-03-28T17:02:52.190Z,9.43
2023-03-28T17:05:20.067Z,10.03
2023-03-28T17:07:47.602Z,8.57
2023-03-28T17:10:16.441Z,17.73
2023-03-28T17:12:44.119Z,10.37
2023-03-28T17:15:12.350Z,20.00
2023-03-28T17:17:40.042Z,13.63
2023-03-28T17:20:09.449Z,14.10
2023-03-28T17:22:37.885Z,17.20
2023-03-28T17:25:06.768Z,17.03
2023-03-28T17:27:35.152Z,16.10
2023-03-28T17:30:03.664Z,14.90
2023-03-28T17:32:31.388Z,10.37
2023-03-28T17:34:59.343Z,14.57
2023-03-28T17:37:26.817Z,19.40
2023-03-28T17:39:55.239Z,15.63
2023-03-28T17:42:23.751Z,18.40
2023-03-28T17:44:52.739Z,24.83
2023-03-28T17:47:20.464Z,29.63
2023-03-28T17:49:48.293Z,33.73
2023-03-28T17:52:16.643Z,27.40
2023-03-28T17:54:44.773Z,28.27
2023-03-28T17:57:12.759Z,25.47
2023-03-28T17:59:41.887Z,18.97
2023-03-28T18:02:10.420Z,21.40
2023-03-28T18:04:38.692Z,17.53
2023-03-28T18:07:28.104Z,41.50
2023-03-28T18:10:01.125Z,26.07
2023-03-28T18:12:29.283Z,20.87
2023-03-28T18:14:58.938Z,27.17
2023-03-28T18:17:28.922Z,31.83
2023-03-28T18:19:57.225Z,29.90
2023-03-28T18:22:25.245Z,27.83
2023-03-28T18:24:54.553Z,41.50
2023-03-28T18:27:22.299Z,46.83
2023-03-28T18:29:50.217Z,39.73
2023-03-28T18:32:17.983Z,46.93
2023-03-28T18:34:46.781Z,42.43
2023-03-28T18:37:15.380Z,34.57
2023-03-28T18:39:45.557Z,31.67
2023-03-28T18:42:13.223Z,31.63
2023-03-28T18:44:41.233Z,34.57
2023-03-28T18:47:11.021Z,46.87
2023-03-28T18:49:41.173Z,43.40
2023-03-28T18:52:11.008Z,66.70
2023-03-28T18:54:38.889Z,55.90
2023-03-28T18:57:07.559Z,50.40
2023-03-28T18:59:35.848Z,43.20
2023-03-28T19:02:03.756Z,43.90
2023-03-28T19:04:33.737Z,49.83
2023-03-28T19:07:02.233Z,55.87
2023-03-28T19:09:30.566Z,68.63
2023-03-28T19:11:58.880Z,46.23
2023-03-28T19:14:27.297Z,37.53
2023-03-28T19:16:54.670Z,25.83
2023-03-28T19:19:24.061Z,21.77
2023-03-28T19:21:53.034Z,9.90
2023-03-28T19:24:24.648Z,10.20
2023-03-28T19:26:53.882Z,10.17
2023-03-28T19:29:22.365Z,9.93
2023-03-28T19:31:52.402Z,8.20
2023-03-28T19:34:22.564Z,8.90
2023-03-28T19:36:52.737Z,7.43
2023-03-28T19:39:22.141Z,6.53
2023-03-28T19:41:50.549Z,8.10
2023-03-28T19:44:19.807Z,7.77
2023-03-28T19:46:49.205Z,7.07
2023-03-28T19:49:19.450Z,7.07
2023-03-28T19:51:48.571Z,8.23
2023-03-28T19:54:19.142Z,8.97
2023-03-28T19:56:49.086Z,8.00
2023-03-28T19:59:17.618Z,8.10
2023-03-28T20:01:47.250Z,9.30
2023-03-28T20:04:17.718Z,8.90
2023-03-28T20:06:46.376Z,9.23
2023-03-28T20:09:14.336Z,9.17
2023-03-28T20:11:43.881Z,9.90
2023-03-28T20:14:17.367Z,10.47
2023-03-28T20:16:45.557Z,9.43
2023-03-28T20:19:13.754Z,11.37
2023-03-28T20:21:42.071Z,15.23
2023-03-28T20:24:12.886Z,12.37
2023-03-28T20:26:41.678Z,12.77
2023-03-28T20:29:14.186Z,20.30
2023-03-28T20:31:42.392Z,25.00
2023-03-28T20:34:11.624Z,32.27
2023-03-28T20:36:41.849Z,16.63
2023-03-28T20:39:09.927Z,17.80
2023-03-28T20:41:38.368Z,17.10
2023-03-28T20:44:07.847Z,16.63
2023-03-28T20:46:38.624Z,11.20
2023-03-28T20:49:08.644Z,12.17
2023-03-28T20:51:40.360Z,13.40
2023-03-28T20:54:09.904Z,10.83
2023-03-28T20:56:38.072Z,9.90
2023-03-28T20:59:06.129Z,9.27
2023-03-28T21:01:39.959Z,7.50
2023-03-28T21:04:08.797Z,8.00
2023-03-28T21:06:40.242Z,7.97
2023-03-28T21:09:14.363Z,8.67
2023-03-28T21:11:43.970Z,14.37
2023-03-28T21:14:13.583Z,13.70
2023-03-28T21:16:41.783Z,9.30
2023-03-28T21:19:09.967Z,8.53
2023-03-28T21:21:37.679Z,6.90
2023-03-28T21:24:07.374Z,7.50
2023-03-28T21:26:35.994Z,6.10
2023-03-28T21:29:04.832Z,6.70
2023-03-28T21:31:33.321Z,6.97
2023-03-28T21:34:01.564Z,5.77
2023-03-28T21:36:29.864Z,6.37
2023-03-28T21:38:58.134Z,6.73
2023-03-28T21:41:27.575Z,6.63
2023-03-28T21:43:55.863Z,6.67
2023-03-28T21:46:23.691Z,7.33
2023-03-28T21:48:51.639Z,7.40
2023-03-28T21:51:19.559Z,7.53
2023-03-28T21:53:47.430Z,6.90
2023-03-28T21:56:16.557Z,6.77
2023-03-28T21:58:44.883Z,6.63
2023-03-28T22:01:14.375Z,7.47
2023-03-28T22:03:42.653Z,7.50
2023-03-28T22:06:10.960Z,9.03
2023-03-28T22:08:40.598Z,8.83
2023-03-28T22:11:15.974Z,9.83
2023-03-28T22:13:47.818Z,8.73
2023-03-28T22:16:15.688Z,9.47
2023-03-28T22:18:50.065Z,9.60
2023-03-28T22:21:18.451Z,9.40
2023-03-28T22:23:47.882Z,9.10
2023-03-28T22:26:15.962Z,9.83
2023-03-28T22:28:43.997Z,9.77
2023-03-28T22:31:11.310Z,10.63
2023-03-28T22:33:39.378Z,9.57
2023-03-28T22:36:07.280Z,10.07
2023-03-28T22:38:35.222Z,9.77
2023-03-28T22:41:03.044Z,10.70
2023-03-28T22:43:33.288Z,9.17
2023-03-28T22:46:00.768Z,9.90
2023-03-28T22:48:31.979Z,10.03
2023-03-28T22:51:01.654Z,10.77
2023-03-28T22:53:29.974Z,9.40
2023-03-28T22:55:57.961Z,8.60
2023-03-28T22:58:26.392Z,8.53
2023-03-28T23:00:55.121Z,9.47
2023-03-28T23:03:23.218Z,8.87
2023-03-28T23:05:51.795Z,9.87
2023-03-28T23:08:20.435Z,10.00
2023-03-28T23:10:48.171Z,9.70
2023-03-28T23:13:16.550Z,8.60
2023-03-28T23:15:44.947Z,10.57
2023-03-28T23:18:14.642Z,10.53
2023-03-28T23:20:42.983Z,9.87
2023-03-28T23:23:12.886Z,9.10
2023-03-28T23:25:40.459Z,10.47
2023-03-28T23:28:08.401Z,8.87
2023-03-28T23:30:35.641Z,8.63
2023-03-28T23:33:04.242Z,8.33
2023-03-28T23:35:32.165Z,8.60
2023-03-28T23:38:00.373Z,8.17
2023-03-28T23:40:28.494Z,8.40
2023-03-28T23:42:56.392Z,7.57
2023-03-28T23:45:24.308Z,7.67
2023-03-28T23:47:52.302Z,9.43
2023-03-28T23:50:19.997Z,10.03
2023-03-28T23:52:47.906Z,9.43
2023-03-28T23:55:15.540Z,8.23
2023-03-28T23:57:43.440Z,8.27
